• Join FlightAware (Why Join?)
  • Login
  • US Flag 
08:20PM EDT


 

Airport Tracker/Info


-or-


 

Live Flight TrackerFlight Track Log ✈ CSC8652 ✈ 22-Feb-2014 ✈ ZUZH / PZI - ZUUU / CTU

Flight Track Log - Related Links

Times and Time Zones

All times are in EST time to prevent confusion due to time zone crossing. See the CSC8652 flight status page for this flight to view local times or setup timezone preferences in your user account.

Time Position Orientation Groundspeed Altitude Reporting Facility
EST Latitude Longitude Course Direction KTS MPH feet Rate Location/Type
11:29PM 26.9739 102.0213 25° Northeast  Level Estimated
11:30PM 27.0461 102.0585 25° Northeast  Level Estimated
11:31PM 27.1184 102.0958 25° Northeast  Level Estimated
11:32PM 27.1907 102.1331 25° Northeast  Level Estimated
11:33PM 27.2629 102.1704 25° Northeast  Level Estimated
11:34PM 27.3351 102.2078 25° Northeast  Level Estimated
11:35PM 27.4074 102.2453 25° Northeast  Level Estimated
11:36PM 27.4796 102.2828 25° Northeast  Level Estimated
11:37PM 27.5518 102.3204 25° Northeast  Level Estimated
11:38PM 27.6240 102.3580 25° Northeast  Level Estimated
11:39PM 27.6962 102.3956 25° Northeast  Level Estimated
11:40PM 27.7684 102.4333 25° Northeast  Level Estimated
11:41PM 27.8405 102.4711 25° Northeast  Level Estimated
11:42PM 27.9127 102.5089 25° Northeast  Level Estimated
11:43PM 27.9848 102.5467 25° Northeast  Level Estimated
11:44PM 28.0569 102.5846 25° Northeast  Level Estimated
11:45PM 28.1291 102.6226 25° Northeast  Level Estimated
11:46PM 28.2012 102.6606 25° Northeast  Level Estimated
11:47PM 28.2733 102.6987 25° Northeast  Level Estimated
11:48PM 28.3454 102.7368 25° Northeast  Level Estimated
11:49PM 28.4174 102.7749 25° Northeast  Level Estimated
11:50PM 28.4895 102.8131 25° Northeast  Level Estimated
11:51PM 28.5616 102.8514 25° Northeast  Level Estimated
11:52PM 28.6336 102.8897 25° Northeast  Level Estimated
11:53PM 28.7057 102.9281 25° Northeast  Level Estimated
11:54PM 28.7777 102.9665 25° Northeast  Level Estimated
11:55PM 28.8497 103.0050 25° Northeast  Level Estimated
11:56PM 28.9217 103.0435 25° Northeast  Level Estimated
11:57PM 28.9937 103.0821 25° Northeast  Level Estimated
11:58PM 29.0657 103.1208 25° Northeast  Level Estimated
11:59PM 29.1377 103.1594 25° Northeast  Level Estimated
12:00AM 29.2096 103.1982 25° Northeast  Level Estimated
12:01AM 29.2816 103.2370 25° Northeast  Level Estimated
12:02AM 29.3535 103.2758 25° Northeast  Level Estimated
12:03AM 29.4254 103.3148 25° Northeast  Level Estimated
12:04AM 29.4974 103.3537 25° Northeast  Level Estimated
12:05AM 29.5693 103.3927 25° Northeast  Level Estimated
12:06AM 29.6412 103.4318 25° Northeast  Level Estimated
12:07AM 29.7131 103.4709 25° Northeast  Level Estimated
12:08AM 29.7849 103.5101 25° Northeast  Level Estimated
12:09AM 29.8568 103.5494 25° Northeast  Level Estimated
12:10AM 29.9286 103.5887 25° Northeast  Level Estimated
12:11AM 30.0005 103.6280 25° Northeast  Level Estimated
12:12AM 30.0723 103.6674 25° Northeast  Level Estimated
12:13AM 30.1441 103.7069 25° Northeast  Level Estimated
12:14AM 30.2159 103.7465 25° Northeast  Level Estimated
12:15AM 30.2877 103.7860 25° Northeast  Level Estimated
12:16AM 30.3595 103.8257 25° Northeast  Level Estimated
12:17AM 30.4312 103.8654 26° Northeast  Level Estimated
12:18AM 30.5030 103.9052 26° Northeast  Level Estimated